createdAt,value
2018-07-23T00:01:09.890Z,24.67
2018-07-23T00:03:38.307Z,24.67
2018-07-23T00:06:06.581Z,24.72
2018-07-23T00:08:35.014Z,24.68
2018-07-23T00:11:03.446Z,24.44
2018-07-23T00:13:31.716Z,24.29
2018-07-23T00:16:00.096Z,24.39
2018-07-23T00:18:28.190Z,24.18
2018-07-23T00:20:56.686Z,23.67
2018-07-23T00:23:24.930Z,23.69
2018-07-23T00:25:52.810Z,23.74
2018-07-23T00:28:21.317Z,24.12
2018-07-23T00:30:49.698Z,24.11
2018-07-23T00:33:17.929Z,23.86
2018-07-23T00:35:46.231Z,23.65
2018-07-23T00:38:14.677Z,24.03
2018-07-23T00:40:42.836Z,24.03
2018-07-23T06:43:54.787Z,25.45
2018-07-23T06:46:23.210Z,25.42
2018-07-23T06:48:51.494Z,25.48
2018-07-23T06:51:19.673Z,25.64
2018-07-23T06:53:48.034Z,26.05
2018-07-23T06:56:16.421Z,26.16
2018-07-23T06:58:44.731Z,26.03
2018-07-23T07:01:13.073Z,26.01
2018-07-23T07:03:41.453Z,26.21
2018-07-23T07:06:09.721Z,26.40
2018-07-23T07:08:38.157Z,26.23
2018-07-23T07:11:06.486Z,26.39
2018-07-23T07:13:34.953Z,26.45
2018-07-23T07:16:03.346Z,26.57
2018-07-23T07:18:31.852Z,26.67
2018-07-23T07:21:00.298Z,26.54
2018-07-23T07:23:28.573Z,26.30
2018-07-23T07:25:56.507Z,26.33
2018-07-23T07:28:24.814Z,26.42
2018-07-23T07:30:53.229Z,26.05
2018-07-23T07:33:21.503Z,26.16
2018-07-23T07:35:49.853Z,26.38
2018-07-23T07:38:18.268Z,26.64
2018-07-23T07:40:46.505Z,26.68
2018-07-23T07:43:14.884Z,26.80
2018-07-23T07:45:43.302Z,26.94
2018-07-23T07:48:11.633Z,27.35
2018-07-23T07:50:39.906Z,27.43
2018-07-23T07:53:08.297Z,27.27
2018-07-23T07:55:36.574Z,27.12
2018-07-23T07:58:04.530Z,27.14
2018-07-23T08:00:32.512Z,27.31
2018-07-23T08:03:00.455Z,27.53
2018-07-23T08:05:28.530Z,27.44
2018-07-23T08:07:56.401Z,27.30
2018-07-23T08:10:24.285Z,27.47
2018-07-23T08:12:52.201Z,27.71
2018-07-23T08:15:20.132Z,27.90
2018-07-23T08:17:48.113Z,27.98
2018-07-23T08:20:16.095Z,28.16
2018-07-23T08:22:44.043Z,28.21
2018-07-23T08:25:11.954Z,28.05
2018-07-23T08:27:39.858Z,27.65
2018-07-23T08:30:07.873Z,27.72
2018-07-23T08:32:35.825Z,27.97
2018-07-23T08:35:03.785Z,27.98
2018-07-23T08:37:31.711Z,28.15
2018-07-23T08:39:59.653Z,28.06
2018-07-23T08:42:27.583Z,28.04
2018-07-23T08:44:55.469Z,28.16
2018-07-23T08:47:23.349Z,28.29
2018-07-23T08:49:51.282Z,28.55
2018-07-23T08:52:19.192Z,28.64
2018-07-23T08:54:47.129Z,28.45
2018-07-23T08:57:15.095Z,28.56
2018-07-23T08:59:42.993Z,28.60
2018-07-23T09:02:11.174Z,28.70
2018-07-23T09:04:39.128Z,28.73
2018-07-23T09:07:07.046Z,28.94
2018-07-23T09:09:34.989Z,28.99
2018-07-23T09:12:02.909Z,29.07
2018-07-23T09:14:30.855Z,29.24
2018-07-23T09:16:58.789Z,29.03
2018-07-23T09:19:26.698Z,28.68
2018-07-23T09:21:54.623Z,28.94
2018-07-23T09:24:22.535Z,29.06
2018-07-23T09:26:50.421Z,29.05
2018-07-23T09:29:18.358Z,29.17
2018-07-23T09:31:46.337Z,29.14
2018-07-23T09:34:14.233Z,29.24
2018-07-23T09:36:42.135Z,29.03
2018-07-23T09:39:10.680Z,29.14
2018-07-23T09:41:38.589Z,29.16
2018-07-23T09:44:06.587Z,29.36
2018-07-23T09:46:34.608Z,29.54
2018-07-23T09:49:02.549Z,29.48
2018-07-23T09:51:30.478Z,29.45
2018-07-23T09:53:58.424Z,29.64
2018-07-23T09:56:26.337Z,29.61
2018-07-23T09:58:54.213Z,29.51
2018-07-23T10:01:22.160Z,29.59
2018-07-23T10:03:50.095Z,29.58
2018-07-23T10:06:18.951Z,29.55
2018-07-23T10:08:46.817Z,29.45
2018-07-23T10:11:14.749Z,29.54
2018-07-23T10:13:42.676Z,29.37
2018-07-23T10:16:10.590Z,29.47
2018-07-23T10:18:38.489Z,29.60
2018-07-23T10:21:06.424Z,29.78
2018-07-23T10:23:34.343Z,30.02
2018-07-23T10:26:02.226Z,30.01
2018-07-23T10:28:30.178Z,29.99
2018-07-23T10:30:58.060Z,29.69
2018-07-23T10:33:25.982Z,29.36
2018-07-23T10:35:53.889Z,29.16
2018-07-23T10:38:21.802Z,29.57
2018-07-23T10:40:49.726Z,29.82
2018-07-23T10:43:17.643Z,29.89
2018-07-23T10:45:45.531Z,30.12
2018-07-23T10:48:13.521Z,30.19
2018-07-23T10:50:41.405Z,30.24
2018-07-23T10:53:09.293Z,30.10
2018-07-23T10:55:37.235Z,30.33
2018-07-23T10:58:05.412Z,30.30
2018-07-23T11:00:33.355Z,30.16
2018-07-23T11:03:01.273Z,30.02
2018-07-23T11:05:29.194Z,30.04
2018-07-23T11:07:57.118Z,30.26
2018-07-23T11:10:25.029Z,30.32
2018-07-23T11:12:53.063Z,30.28
2018-07-23T11:15:20.964Z,30.31
2018-07-23T11:17:48.882Z,30.42
2018-07-23T11:20:16.862Z,30.54
2018-07-23T11:22:44.752Z,30.70
2018-07-23T11:25:38.594Z,30.75
2018-07-23T11:27:40.658Z,30.66
2018-07-23T11:30:08.608Z,30.50
2018-07-23T11:32:36.845Z,30.30
2018-07-23T11:35:05.236Z,30.34
2018-07-23T11:37:33.529Z,30.45
2018-07-23T11:40:01.882Z,30.28
2018-07-23T11:42:30.358Z,29.91
2018-07-23T11:44:58.775Z,30.06
2018-07-23T11:47:27.254Z,30.12
2018-07-23T11:59:53.819Z,30.13
2018-07-23T13:15:07.357Z,29.44
2018-07-23T13:17:35.792Z,29.63
2018-07-23T13:20:04.482Z,29.25
2018-07-23T13:22:32.807Z,29.26
2018-07-23T13:25:01.132Z,29.08
2018-07-23T13:27:29.505Z,29.26
2018-07-23T13:29:57.926Z,29.17
2018-07-23T13:32:26.281Z,29.40
2018-07-23T13:34:54.447Z,29.13
2018-07-23T13:37:22.761Z,28.83
2018-07-23T13:39:51.081Z,28.98
2018-07-23T13:42:18.990Z,29.00
2018-07-23T13:44:47.245Z,28.76
2018-07-23T13:47:15.607Z,28.61
2018-07-23T13:49:43.890Z,28.82
2018-07-23T13:52:12.156Z,28.57
2018-07-23T13:54:40.433Z,28.39
2018-07-23T13:57:08.744Z,28.84
2018-07-23T13:59:37.189Z,28.83
2018-07-23T14:02:05.565Z,28.50
2018-07-23T14:04:34.060Z,28.27
2018-07-23T14:07:02.321Z,27.99
2018-07-23T14:09:30.607Z,27.57
2018-07-23T14:11:58.881Z,27.40
2018-07-23T14:14:27.153Z,27.37
2018-07-23T14:16:55.537Z,27.90
2018-07-23T14:19:23.494Z,27.89
2018-07-23T14:21:51.874Z,27.87
2018-07-23T14:24:20.150Z,27.61
2018-07-23T14:26:48.534Z,27.40
2018-07-23T14:29:16.700Z,27.48
2018-07-23T14:31:44.970Z,27.52
2018-07-23T14:34:13.253Z,27.72
2018-07-23T14:36:41.182Z,27.70
2018-07-23T14:39:11.490Z,27.50
2018-07-23T14:41:39.738Z,27.41
2018-07-23T14:44:07.990Z,27.61
2018-07-23T14:46:36.512Z,27.73
2018-07-23T14:49:05.157Z,27.80
2018-07-23T14:51:33.175Z,27.68
2018-07-23T14:54:01.549Z,27.60
2018-07-23T14:56:29.890Z,27.58
2018-07-23T14:58:58.474Z,27.74
2018-07-23T15:01:26.767Z,27.76
2018-07-23T15:03:55.118Z,27.62
2018-07-23T15:06:23.390Z,27.47
2018-07-23T15:08:51.913Z,27.28
2018-07-23T15:11:20.254Z,27.13
2018-07-23T15:13:48.537Z,27.19
2018-07-23T15:16:16.837Z,27.48
2018-07-23T15:18:45.281Z,27.36
2018-07-23T15:21:13.454Z,27.46
2018-07-23T15:23:42.796Z,27.41
2018-07-23T15:26:11.242Z,27.34
2018-07-23T15:28:39.622Z,27.10
2018-07-23T15:31:08.171Z,26.86
2018-07-23T15:33:36.687Z,26.79
2018-07-23T15:36:04.611Z,26.88
2018-07-23T15:38:33.171Z,26.60
2018-07-23T15:41:01.033Z,26.57
2018-07-23T15:43:28.983Z,26.15
2018-07-23T15:46:00.662Z,25.36
2018-07-23T15:48:28.989Z,24.78
2018-07-23T15:50:57.592Z,24.00
2018-07-23T15:53:31.709Z,22.90
2018-07-23T15:55:59.602Z,22.55
2018-07-23T15:58:27.535Z,22.37
2018-07-23T16:00:55.433Z,22.79
2018-07-23T16:03:23.341Z,23.04
2018-07-23T16:05:51.256Z,23.16
2018-07-23T16:08:19.169Z,23.12
2018-07-23T16:10:47.222Z,22.60
2018-07-23T16:13:15.086Z,22.49
2018-07-23T16:15:43.086Z,22.44
2018-07-23T16:18:10.965Z,22.44
2018-07-23T16:20:38.926Z,22.69
2018-07-23T16:23:06.845Z,22.87
2018-07-23T16:25:34.777Z,22.80
2018-07-23T16:28:02.760Z,22.74
2018-07-23T16:30:30.668Z,23.02
2018-07-23T16:32:58.590Z,23.14
2018-07-23T16:35:26.502Z,23.04
2018-07-23T16:37:54.406Z,22.84
2018-07-23T16:40:22.365Z,22.50
2018-07-23T16:42:50.306Z,22.50
2018-07-23T16:45:18.252Z,22.92
2018-07-23T16:47:46.185Z,22.65
2018-07-23T16:50:14.111Z,22.20
2018-07-23T16:52:42.010Z,22.00
2018-07-23T16:55:10.216Z,21.92
2018-07-23T16:57:38.449Z,22.24
2018-07-23T17:00:10.170Z,22.52
2018-07-23T17:02:38.073Z,22.61
2018-07-23T17:05:05.989Z,22.51
2018-07-23T17:07:33.943Z,22.39
2018-07-23T17:10:01.825Z,22.52
2018-07-23T17:12:29.729Z,22.03
2018-07-23T17:14:57.635Z,22.00
2018-07-23T17:17:25.737Z,22.04
2018-07-23T17:19:54.270Z,22.16
2018-07-23T17:22:22.577Z,22.35
2018-07-23T17:24:50.915Z,22.48
2018-07-23T17:27:19.185Z,22.38
2018-07-23T17:29:47.506Z,22.41
2018-07-23T17:32:15.848Z,22.12
2018-07-23T17:34:44.026Z,22.00
2018-07-23T17:37:12.393Z,21.95
2018-07-23T17:39:40.560Z,21.95
2018-07-23T17:42:09.091Z,21.92
2018-07-23T17:44:37.424Z,21.88
2018-07-23T17:47:05.693Z,22.05
2018-07-23T17:49:34.017Z,21.91
2018-07-23T17:52:02.256Z,21.84
2018-07-23T17:54:30.629Z,21.95
2018-07-23T17:56:58.950Z,21.72
2018-07-23T17:59:27.288Z,21.53
2018-07-23T18:01:55.666Z,21.94
2018-07-23T18:04:23.977Z,22.06
2018-07-23T18:06:52.318Z,22.27
2018-07-23T18:09:20.502Z,22.32
2018-07-23T18:11:48.500Z,22.09
2018-07-23T18:14:16.738Z,22.15
2018-07-23T18:16:45.006Z,22.16
2018-07-23T18:19:13.057Z,22.10
2018-07-23T18:21:41.358Z,22.07
2018-07-23T18:24:09.633Z,21.95
2018-07-23T18:26:37.939Z,22.10
2018-07-23T18:29:06.277Z,22.20
2018-07-23T18:31:34.662Z,22.32
2018-07-23T18:34:02.928Z,22.24
2018-07-23T18:36:31.321Z,22.39
2018-07-23T18:38:59.581Z,22.42
2018-07-23T18:41:27.898Z,22.51
2018-07-23T18:43:55.828Z,22.33
2018-07-23T18:46:24.103Z,22.17
2018-07-23T18:49:32.000Z,22.03
2018-07-23T18:52:00.494Z,22.19
2018-07-23T18:54:29.850Z,22.22
2018-07-23T18:56:59.353Z,22.10
2018-07-23T18:59:27.777Z,21.96
2018-07-23T19:01:56.714Z,22.02
2018-07-23T19:04:25.041Z,22.12
2018-07-23T19:06:53.526Z,22.03
2018-07-23T19:09:22.972Z,22.12
2018-07-23T19:11:52.377Z,21.85
2018-07-23T19:14:20.916Z,21.96
2018-07-23T19:16:49.864Z,21.90
2018-07-23T19:19:18.185Z,21.78
2018-07-23T19:21:46.554Z,21.67
2018-07-23T19:24:14.878Z,21.51
2018-07-23T19:26:43.109Z,21.43
2018-07-23T19:29:11.494Z,21.48
2018-07-23T19:31:40.068Z,21.48
2018-07-23T19:34:08.613Z,21.52
2018-07-23T19:36:38.118Z,21.62
2018-07-23T19:39:08.346Z,21.61
2018-07-23T19:41:40.147Z,21.45
2018-07-23T19:44:11.137Z,21.64
2018-07-23T19:46:40.573Z,21.64
2018-07-23T19:49:08.573Z,21.64
2018-07-23T19:51:36.709Z,21.57
2018-07-23T19:54:05.184Z,21.63
2018-07-23T19:56:33.121Z,21.61
2018-07-23T19:59:01.472Z,21.79
2018-07-23T20:01:30.035Z,21.77
2018-07-23T20:03:58.216Z,21.80
2018-07-23T20:06:27.334Z,21.65
2018-07-23T20:08:56.453Z,21.78
2018-07-23T20:11:25.093Z,21.90
2018-07-23T20:13:53.553Z,21.78
2018-07-23T20:16:22.086Z,21.93
2018-07-23T20:18:50.036Z,21.75
2018-07-23T20:21:17.950Z,21.76
2018-07-23T20:23:46.154Z,21.80
2018-07-23T20:26:14.470Z,21.72
2018-07-23T20:28:42.901Z,21.78
2018-07-23T20:31:11.173Z,21.69
2018-07-23T20:33:39.482Z,21.66
2018-07-23T20:36:07.927Z,21.62
2018-07-23T20:38:36.510Z,21.56
2018-07-23T20:41:04.724Z,21.62
2018-07-23T20:43:33.269Z,21.49
2018-07-23T20:46:01.694Z,21.54
2018-07-23T20:48:30.125Z,21.50
2018-07-23T20:50:58.292Z,21.49
2018-07-23T20:53:26.701Z,21.51
2018-07-23T20:55:55.149Z,21.58
2018-07-23T20:58:23.733Z,21.62
2018-07-23T21:00:52.026Z,21.78
2018-07-23T21:03:20.297Z,21.63
2018-07-23T21:05:48.310Z,21.73
2018-07-23T21:08:16.875Z,21.73
2018-07-23T21:10:45.122Z,21.61
2018-07-23T21:13:13.110Z,21.61
2018-07-23T21:15:41.470Z,21.61
2018-07-23T21:18:09.947Z,21.62
2018-07-23T21:20:38.224Z,21.72
2018-07-23T21:23:06.889Z,21.74
2018-07-23T21:25:35.081Z,21.87
2018-07-23T21:28:03.557Z,21.84
2018-07-23T21:30:31.830Z,21.80
2018-07-23T21:33:00.346Z,21.61
2018-07-23T21:35:28.789Z,21.62
2018-07-23T21:37:56.975Z,21.64
2018-07-23T21:40:25.232Z,21.53
2018-07-23T21:42:53.605Z,21.54
2018-07-23T21:45:22.077Z,21.63
2018-07-23T21:47:50.586Z,21.61
2018-07-23T21:50:19.171Z,21.50
2018-07-23T21:52:47.413Z,21.50
2018-07-23T21:55:15.822Z,21.49
2018-07-23T21:57:44.082Z,21.55
2018-07-23T22:00:14.064Z,21.75
2018-07-23T22:02:42.277Z,21.63
2018-07-23T22:05:10.649Z,21.63
2018-07-23T22:07:39.137Z,21.60
2018-07-23T22:10:08.342Z,21.73
2018-07-23T22:12:36.925Z,21.72
2018-07-23T22:15:06.283Z,21.63
2018-07-23T22:17:34.490Z,21.74
2018-07-23T22:20:02.880Z,21.63
2018-07-23T22:22:31.258Z,21.60
2018-07-23T22:24:59.634Z,21.41
2018-07-23T22:27:28.010Z,21.32
2018-07-23T22:29:56.279Z,21.42
2018-07-23T22:32:24.648Z,21.52
2018-07-23T22:34:53.142Z,21.53
2018-07-23T22:37:21.512Z,21.49
2018-07-23T22:39:49.889Z,21.34
2018-07-23T22:42:18.389Z,21.35
2018-07-23T22:44:47.925Z,21.29
2018-07-23T22:47:16.357Z,21.28
2018-07-23T22:49:44.646Z,21.28
2018-07-23T22:52:13.008Z,21.14
2018-07-23T22:54:41.190Z,21.15
2018-07-23T22:57:09.459Z,21.24
2018-07-23T22:59:37.847Z,21.33
2018-07-23T23:02:05.911Z,21.47
2018-07-23T23:04:34.397Z,21.38
2018-07-23T23:07:02.869Z,21.30
2018-07-23T23:09:30.984Z,21.21
2018-07-23T23:11:59.315Z,21.03
2018-07-23T23:14:27.688Z,21.08
2018-07-23T23:16:56.074Z,21.26
2018-07-23T23:19:24.239Z,21.26
2018-07-23T23:21:52.488Z,21.24
2018-07-23T23:24:20.898Z,21.12
2018-07-23T23:26:49.172Z,21.19
2018-07-23T23:29:17.557Z,21.25
2018-07-23T23:31:45.933Z,21.26
2018-07-23T23:34:14.202Z,21.26
2018-07-23T23:36:42.680Z,21.29
2018-07-23T23:39:12.132Z,21.27
2018-07-23T23:41:40.565Z,21.25
2018-07-23T23:44:09.054Z,21.17
2018-07-23T23:46:37.224Z,21.26
2018-07-23T23:49:05.597Z,21.34
2018-07-23T23:51:34.086Z,21.47
2018-07-23T23:54:02.617Z,21.48
2018-07-23T23:56:31.045Z,21.51
2018-07-23T23:58:59.300Z,21.61
